AU-0043 weather

Chittering Airstrip
Chittering, Western Australia, Australia

Public forecast

Using degrees Celsius for public forecast. Weather courtesy of forecast.io.

Closest aviation weather report (METAR) to Chittering Airstrip

Closest report is RAAF Base Pearce, 11.1 nm (20.6 km) SW. Retrieved 2019/12/11 21:39 UTC (21 minutes ago):

YPEA 112139Z 08015G25KT CAVOK 22/09 Q1017

Closest aviation forecast (TAF) to Chittering Airstrip

Closest forecast is RAAF Base Pearce, 11.1 nm (20.6 km) SW. Retrieved 2019/12/11 18:33 UTC (3 hours ago):

TAF YPEA 111705Z 1118/1212 09020G35KT CAVOK FM112300 08017G27KT CAVOK FM120400 10014KT CAVOK